Detall de PIREP

Printer-friendly versionPDF version

[2014/08/03 06:32:00]
Flight IATA:CT2112
Pilot Number:041
Company ICAO:CAT
Aircraft Type:F28/A
PAX:69
Departing Airport: LEVC
Destination Airport: LEZL
Alternate Airport:LEMG
Online: VATSIM
Route:ASTRO B28 VIBAS
Flight Level:FL230
No Slew and time accel
No pause
Crash detect
Detect pilot in Cockpit between each 30 and 45 minutes
06:32 Zero fuel Weight: 48238 Lbs, Fuel Weight: 11424 Lbs
06:32 VATSIM:LEVC 030600Z VRB02KT CAVOK 22/18 Q1011 NOSIG
06:32 VATSIM:LEZL 030600Z 01002KT CAVOK 17/15 Q1013 NOSIG
06:32 VOICE CATALONIAN
06:38 Parking Brakes off
06:44 Take-off
06:44 Take off Weight: 59236 Lbs
06:44 Wind: 359º @ 002 Knots Heading: 296º
06:44 POS N39º 29´ 25´´ W000º 29´ 05´´
06:44 Gear Up: 173 Knots
06:44 Flaps:1 at 173 Knots
06:44 Flaps:0 at 210 Knots
06:56 TOC
06:56 Fuel Weight: 9372 Lb
06:59 Wind:037º@029 Knots Heading: 233º Ground Speed: 433 Knots Altitude23723 ft
07:09 TOD
07:09 Fuel Weight: 8373 Lb
07:14 Wind:286º@019 Knots Heading: 228º Ground Speed: 302 Knots Altitude 16056 ft
07:29 Wind:318º@017 Knots Heading: 273º Ground Speed: 258 Knots Altitude 6046 ft
07:37 Flaps:1 at 256 Knots
07:37 Flaps:2 at 244 Knots
07:37 Flaps:4 at 200 Knots
07:37 Gear Down: 164 Knots
07:38 Flaps:5 at 148 Knots
07:39 TouchDown:Rate -309 ft/min Speed: 104 Knots
07:39 Flaps:3 at 86 Knots
07:39 Flaps:0 at 84 Knots
07:39 VATSIM:LEZL 030730Z VRB02KT CAVOK 21/16 Q1013 NOSIG
07:39 Land
07:39 Wind:359º@001 Knots
07:39 Heading: 280º
07:39 Flight Duration: 00:55
07:39 Landing Weight: 55178 Lbs
07:39 POS N37º 25´ 04´´ W005º 53´ 14´´
07:42 Parking brakes on
07:42 Block to Block Duration: 01:04
07:42 Final Fuel: 6821 Lbls
07:42 Spent Fuel: 4603 Lbls
07:42 Flight Length: 294 NM
07:42 TOD Land Length: 135 NM

Exportar CSV

Powered by Drupal - Modified by Danger4k